sensor_id;sensor_type;location;lat;lon;timestamp;P1;durP1;ratioP1;P2;durP2;ratioP2
81884;SDS011;71340;55.154;30.266;2023-09-07T00:00:28;6.40;;;2.20;;
81884;SDS011;71340;55.154;30.266;2023-09-07T00:02:53;4.57;;;2.10;;
81884;SDS011;71340;55.154;30.266;2023-09-07T00:05:19;9.75;;;2.20;;
81884;SDS011;71340;55.154;30.266;2023-09-07T00:07:44;8.17;;;2.30;;
81884;SDS011;71340;55.154;30.266;2023-09-07T00:10:10;15.90;;;3.03;;
81884;SDS011;71340;55.154;30.266;2023-09-07T00:12:35;12.20;;;3.27;;
81884;SDS011;71340;55.154;30.266;2023-09-07T00:15:04;20.13;;;3.28;;
81884;SDS011;71340;55.154;30.266;2023-09-07T00:17:31;19.25;;;3.30;;
81884;SDS011;71340;55.154;30.266;2023-09-07T00:19:56;30.13;;;4.45;;
81884;SDS011;71340;55.154;30.266;2023-09-07T00:22:23;20.83;;;3.70;;
81884;SDS011;71340;55.154;30.266;2023-09-07T00:24:50;32.15;;;4.82;;
81884;SDS011;71340;55.154;30.266;2023-09-07T00:27:16;34.58;;;4.95;;
81884;SDS011;71340;55.154;30.266;2023-09-07T00:29:41;36.23;;;5.13;;
81884;SDS011;71340;55.154;30.266;2023-09-07T00:32:07;42.87;;;6.10;;
81884;SDS011;71340;55.154;30.266;2023-09-07T00:34:32;52.73;;;6.93;;
81884;SDS011;71340;55.154;30.266;2023-09-07T00:36:58;62.40;;;7.80;;
81884;SDS011;71340;55.154;30.266;2023-09-07T00:39:25;55.42;;;7.78;;
81884;SDS011;71340;55.154;30.266;2023-09-07T00:41:50;65.95;;;8.80;;
81884;SDS011;71340;55.154;30.266;2023-09-07T00:44:15;70.37;;;10.23;;
81884;SDS011;71340;55.154;30.266;2023-09-07T00:46:41;73.33;;;10.47;;
81884;SDS011;71340;55.154;30.266;2023-09-07T00:49:07;70.00;;;8.90;;
81884;SDS011;71340;55.154;30.266;2023-09-07T00:51:32;75.65;;;9.95;;
81884;SDS011;71340;55.154;30.266;2023-09-07T00:53:58;71.03;;;8.43;;
81884;SDS011;71340;55.154;30.266;2023-09-07T00:56:25;74.88;;;8.90;;
81884;SDS011;71340;55.154;30.266;2023-09-07T00:58:52;86.20;;;9.63;;
81884;SDS011;71340;55.154;30.266;2023-09-07T01:01:19;82.72;;;8.43;;
81884;SDS011;71340;55.154;30.266;2023-09-07T01:03:44;78.43;;;9.48;;
81884;SDS011;71340;55.154;30.266;2023-09-07T01:06:15;55.20;;;8.10;;
81884;SDS011;71340;55.154;30.266;2023-09-07T01:08:44;54.70;;;8.32;;
81884;SDS011;71340;55.154;30.266;2023-09-07T01:11:13;56.90;;;7.85;;
81884;SDS011;71340;55.154;30.266;2023-09-07T01:13:40;50.25;;;7.90;;
81884;SDS011;71340;55.154;30.266;2023-09-07T01:16:05;52.87;;;7.47;;
81884;SDS011;71340;55.154;30.266;2023-09-07T01:18:31;42.75;;;7.00;;
81884;SDS011;71340;55.154;30.266;2023-09-07T01:20:58;38.63;;;6.85;;
81884;SDS011;71340;55.154;30.266;2023-09-07T01:23:24;47.40;;;6.77;;
81884;SDS011;71340;55.154;30.266;2023-09-07T01:25:50;52.55;;;7.18;;
81884;SDS011;71340;55.154;30.266;2023-09-07T01:28:16;50.47;;;6.80;;
81884;SDS011;71340;55.154;30.266;2023-09-07T01:30:42;57.60;;;7.47;;
81884;SDS011;71340;55.154;30.266;2023-09-07T01:33:07;53.17;;;6.23;;
81884;SDS011;71340;55.154;30.266;2023-09-07T01:35:33;54.45;;;9.10;;
81884;SDS011;71340;55.154;30.266;2023-09-07T01:38:01;59.40;;;7.72;;
81884;SDS011;71340;55.154;30.266;2023-09-07T01:40:27;56.37;;;7.67;;
81884;SDS011;71340;55.154;30.266;2023-09-07T01:42:53;55.58;;;7.60;;
81884;SDS011;71340;55.154;30.266;2023-09-07T01:45:18;68.47;;;8.93;;
81884;SDS011;71340;55.154;30.266;2023-09-07T01:47:43;62.47;;;11.20;;
81884;SDS011;71340;55.154;30.266;2023-09-07T01:50:09;40.53;;;7.35;;
81884;SDS011;71340;55.154;30.266;2023-09-07T01:52:34;43.73;;;6.30;;
81884;SDS011;71340;55.154;30.266;2023-09-07T01:55:00;41.57;;;7.57;;
81884;SDS011;71340;55.154;30.266;2023-09-07T01:57:25;45.10;;;7.07;;
81884;SDS011;71340;55.154;30.266;2023-09-07T01:59:51;42.33;;;6.77;;
81884;SDS011;71340;55.154;30.266;2023-09-07T02:02:16;47.25;;;7.55;;
81884;SDS011;71340;55.154;30.266;2023-09-07T02:04:41;51.23;;;7.73;;
81884;SDS011;71340;55.154;30.266;2023-09-07T02:07:10;50.47;;;7.20;;
81884;SDS011;71340;55.154;30.266;2023-09-07T02:09:36;36.72;;;6.53;;
81884;SDS011;71340;55.154;30.266;2023-09-07T02:12:02;43.70;;;7.10;;
81884;SDS011;71340;55.154;30.266;2023-09-07T02:14:29;39.88;;;6.65;;
81884;SDS011;71340;55.154;30.266;2023-09-07T02:16:54;53.63;;;7.57;;
81884;SDS011;71340;55.154;30.266;2023-09-07T02:19:19;39.80;;;6.43;;
81884;SDS011;71340;55.154;30.266;2023-09-07T02:21:47;39.22;;;6.55;;
81884;SDS011;71340;55.154;30.266;2023-09-07T02:24:13;35.53;;;6.50;;
81884;SDS011;71340;55.154;30.266;2023-09-07T02:26:38;40.40;;;6.40;;
81884;SDS011;71340;55.154;30.266;2023-09-07T02:29:08;41.05;;;5.70;;
81884;SDS011;71340;55.154;30.266;2023-09-07T02:31:34;45.23;;;6.63;;
81884;SDS011;71340;55.154;30.266;2023-09-07T02:33:59;45.80;;;6.10;;
81884;SDS011;71340;55.154;30.266;2023-09-07T02:36:24;44.20;;;6.03;;
81884;SDS011;71340;55.154;30.266;2023-09-07T02:38:50;37.37;;;6.90;;
81884;SDS011;71340;55.154;30.266;2023-09-07T02:41:15;39.70;;;6.53;;
81884;SDS011;71340;55.154;30.266;2023-09-07T02:43:41;35.57;;;6.57;;
81884;SDS011;71340;55.154;30.266;2023-09-07T02:46:06;46.47;;;7.67;;
81884;SDS011;71340;55.154;30.266;2023-09-07T02:48:32;35.22;;;5.97;;
81884;SDS011;71340;55.154;30.266;2023-09-07T02:50:57;42.35;;;6.40;;
81884;SDS011;71340;55.154;30.266;2023-09-07T02:53:23;38.20;;;6.20;;
81884;SDS011;71340;55.154;30.266;2023-09-07T02:55:49;41.95;;;6.55;;
81884;SDS011;71340;55.154;30.266;2023-09-07T02:58:14;39.13;;;6.13;;
81884;SDS011;71340;55.154;30.266;2023-09-07T03:00:43;42.73;;;6.53;;
81884;SDS011;71340;55.154;30.266;2023-09-07T03:03:12;45.58;;;7.28;;
81884;SDS011;71340;55.154;30.266;2023-09-07T03:05:41;35.87;;;6.50;;
81884;SDS011;71340;55.154;30.266;2023-09-07T03:08:08;53.17;;;6.43;;
81884;SDS011;71340;55.154;30.266;2023-09-07T03:10:34;39.33;;;6.40;;
81884;SDS011;71340;55.154;30.266;2023-09-07T03:13:00;35.72;;;6.05;;
81884;SDS011;71340;55.154;30.266;2023-09-07T03:15:26;48.27;;;6.53;;
81884;SDS011;71340;55.154;30.266;2023-09-07T03:17:52;43.17;;;6.20;;
81884;SDS011;71340;55.154;30.266;2023-09-07T03:20:17;38.27;;;6.07;;
81884;SDS011;71340;55.154;30.266;2023-09-07T03:22:43;44.67;;;7.68;;
81884;SDS011;71340;55.154;30.266;2023-09-07T03:25:10;39.13;;;7.07;;
81884;SDS011;71340;55.154;30.266;2023-09-07T03:27:39;36.50;;;6.47;;
81884;SDS011;71340;55.154;30.266;2023-09-07T03:30:05;40.03;;;6.53;;
81884;SDS011;71340;55.154;30.266;2023-09-07T03:32:31;34.22;;;6.53;;
81884;SDS011;71340;55.154;30.266;2023-09-07T03:35:02;49.17;;;7.57;;
81884;SDS011;71340;55.154;30.266;2023-09-07T03:37:34;42.90;;;7.68;;
81884;SDS011;71340;55.154;30.266;2023-09-07T03:39:59;53.60;;;6.53;;
81884;SDS011;71340;55.154;30.266;2023-09-07T03:42:24;54.13;;;7.30;;
81884;SDS011;71340;55.154;30.266;2023-09-07T03:44:50;40.97;;;6.87;;
81884;SDS011;71340;55.154;30.266;2023-09-07T03:47:15;41.63;;;6.18;;
81884;SDS011;71340;55.154;30.266;2023-09-07T03:49:41;41.40;;;6.17;;
81884;SDS011;71340;55.154;30.266;2023-09-07T03:52:06;29.27;;;5.93;;
81884;SDS011;71340;55.154;30.266;2023-09-07T03:54:32;17.92;;;5.60;;
81884;SDS011;71340;55.154;30.266;2023-09-07T03:56:57;24.93;;;3.80;;
81884;SDS011;71340;55.154;30.266;2023-09-07T03:59:23;28.97;;;4.73;;
81884;SDS011;71340;55.154;30.266;2023-09-07T04:01:48;27.67;;;4.27;;
81884;SDS011;71340;55.154;30.266;2023-09-07T04:04:14;31.77;;;4.10;;
81884;SDS011;71340;55.154;30.266;2023-09-07T04:06:40;27.80;;;5.17;;
81884;SDS011;71340;55.154;30.266;2023-09-07T04:09:05;27.45;;;4.80;;
81884;SDS011;71340;55.154;30.266;2023-09-07T04:11:30;32.10;;;8.00;;
81884;SDS011;71340;55.154;30.266;2023-09-07T04:13:56;20.53;;;4.50;;
81884;SDS011;71340;55.154;30.266;2023-09-07T04:16:21;17.20;;;3.63;;
81884;SDS011;71340;55.154;30.266;2023-09-07T04:18:47;21.97;;;3.60;;
81884;SDS011;71340;55.154;30.266;2023-09-07T04:21:12;21.30;;;3.67;;
81884;SDS011;71340;55.154;30.266;2023-09-07T04:23:37;18.93;;;4.20;;
81884;SDS011;71340;55.154;30.266;2023-09-07T04:26:05;34.50;;;6.15;;
81884;SDS011;71340;55.154;30.266;2023-09-07T04:28:34;46.38;;;5.93;;
81884;SDS011;71340;55.154;30.266;2023-09-07T04:31:00;38.87;;;6.63;;
81884;SDS011;71340;55.154;30.266;2023-09-07T04:33:28;48.08;;;7.93;;
81884;SDS011;71340;55.154;30.266;2023-09-07T04:35:55;66.30;;;8.20;;
81884;SDS011;71340;55.154;30.266;2023-09-07T04:38:20;62.55;;;9.25;;
81884;SDS011;71340;55.154;30.266;2023-09-07T04:40:45;104.32;;;13.93;;
81884;SDS011;71340;55.154;30.266;2023-09-07T04:43:11;68.17;;;7.40;;
81884;SDS011;71340;55.154;30.266;2023-09-07T04:45:36;45.80;;;6.50;;
81884;SDS011;71340;55.154;30.266;2023-09-07T04:48:01;97.37;;;12.40;;
81884;SDS011;71340;55.154;30.266;2023-09-07T04:50:27;105.13;;;12.73;;
81884;SDS011;71340;55.154;30.266;2023-09-07T04:52:52;99.75;;;12.07;;
81884;SDS011;71340;55.154;30.266;2023-09-07T04:55:18;107.10;;;14.10;;
81884;SDS011;71340;55.154;30.266;2023-09-07T04:57:43;100.13;;;11.70;;
81884;SDS011;71340;55.154;30.266;2023-09-07T05:00:08;108.33;;;12.80;;
81884;SDS011;71340;55.154;30.266;2023-09-07T05:02:34;105.63;;;13.37;;
81884;SDS011;71340;55.154;30.266;2023-09-07T05:05:05;105.95;;;13.68;;
81884;SDS011;71340;55.154;30.266;2023-09-07T05:07:31;108.78;;;13.10;;
81884;SDS011;71340;55.154;30.266;2023-09-07T05:09:56;105.63;;;15.00;;
81884;SDS011;71340;55.154;30.266;2023-09-07T05:12:22;109.57;;;14.33;;
81884;SDS011;71340;55.154;30.266;2023-09-07T05:14:47;121.63;;;15.30;;
81884;SDS011;71340;55.154;30.266;2023-09-07T05:17:12;123.30;;;13.07;;
81884;SDS011;71340;55.154;30.266;2023-09-07T05:19:38;113.43;;;14.65;;
81884;SDS011;71340;55.154;30.266;2023-09-07T05:22:03;120.77;;;14.63;;
81884;SDS011;71340;55.154;30.266;2023-09-07T05:24:28;141.63;;;16.43;;
81884;SDS011;71340;55.154;30.266;2023-09-07T05:26:54;147.70;;;17.17;;
81884;SDS011;71340;55.154;30.266;2023-09-07T05:29:19;131.47;;;16.10;;
81884;SDS011;71340;55.154;30.266;2023-09-07T05:31:46;127.65;;;14.77;;
81884;SDS011;71340;55.154;30.266;2023-09-07T05:34:12;131.10;;;16.63;;
81884;SDS011;71340;55.154;30.266;2023-09-07T05:36:37;157.37;;;18.70;;
81884;SDS011;71340;55.154;30.266;2023-09-07T05:39:03;132.70;;;15.33;;
81884;SDS011;71340;55.154;30.266;2023-09-07T05:41:29;122.47;;;16.55;;
81884;SDS011;71340;55.154;30.266;2023-09-07T05:43:54;97.25;;;12.95;;
81884;SDS011;71340;55.154;30.266;2023-09-07T05:46:20;101.45;;;12.32;;
81884;SDS011;71340;55.154;30.266;2023-09-07T05:48:45;93.67;;;11.43;;
81884;SDS011;71340;55.154;30.266;2023-09-07T05:51:10;103.77;;;11.67;;
81884;SDS011;71340;55.154;30.266;2023-09-07T05:53:36;80.27;;;10.90;;
81884;SDS011;71340;55.154;30.266;2023-09-07T05:56:01;93.83;;;11.63;;
81884;SDS011;71340;55.154;30.266;2023-09-07T05:58:26;75.70;;;9.67;;
81884;SDS011;71340;55.154;30.266;2023-09-07T06:00:52;72.95;;;9.23;;
81884;SDS011;71340;55.154;30.266;2023-09-07T06:03:17;67.07;;;9.52;;
81884;SDS011;71340;55.154;30.266;2023-09-07T06:05:43;74.30;;;9.80;;
81884;SDS011;71340;55.154;30.266;2023-09-07T06:08:09;73.88;;;11.48;;
81884;SDS011;71340;55.154;30.266;2023-09-07T06:10:35;74.77;;;9.70;;
81884;SDS011;71340;55.154;30.266;2023-09-07T06:13:00;76.53;;;9.65;;
81884;SDS011;71340;55.154;30.266;2023-09-07T06:15:26;83.17;;;10.17;;
81884;SDS011;71340;55.154;30.266;2023-09-07T06:17:52;67.57;;;9.48;;
81884;SDS011;71340;55.154;30.266;2023-09-07T06:20:17;74.45;;;10.57;;
81884;SDS011;71340;55.154;30.266;2023-09-07T06:22:44;61.50;;;9.77;;
81884;SDS011;71340;55.154;30.266;2023-09-07T06:25:10;68.53;;;9.33;;
81884;SDS011;71340;55.154;30.266;2023-09-07T06:27:36;63.05;;;8.30;;
81884;SDS011;71340;55.154;30.266;2023-09-07T06:30:01;51.00;;;8.87;;
81884;SDS011;71340;55.154;30.266;2023-09-07T06:32:27;68.03;;;8.82;;
81884;SDS011;71340;55.154;30.266;2023-09-07T06:34:53;74.10;;;9.60;;
81884;SDS011;71340;55.154;30.266;2023-09-07T06:37:18;78.63;;;9.80;;
81884;SDS011;71340;55.154;30.266;2023-09-07T06:39:44;71.90;;;9.00;;
81884;SDS011;71340;55.154;30.266;2023-09-07T06:42:09;64.20;;;8.07;;
81884;SDS011;71340;55.154;30.266;2023-09-07T06:44:37;48.35;;;6.90;;
81884;SDS011;71340;55.154;30.266;2023-09-07T06:47:03;48.27;;;7.70;;
81884;SDS011;71340;55.154;30.266;2023-09-07T06:49:28;54.38;;;7.40;;
81884;SDS011;71340;55.154;30.266;2023-09-07T06:51:55;48.63;;;7.87;;
81884;SDS011;71340;55.154;30.266;2023-09-07T06:54:21;59.65;;;8.25;;
81884;SDS011;71340;55.154;30.266;2023-09-07T06:56:46;68.87;;;8.20;;
81884;SDS011;71340;55.154;30.266;2023-09-07T06:59:17;56.30;;;8.53;;
81884;SDS011;71340;55.154;30.266;2023-09-07T07:04:18;45.90;;;8.02;;
81884;SDS011;71340;55.154;30.266;2023-09-07T07:06:43;36.23;;;6.70;;
81884;SDS011;71340;55.154;30.266;2023-09-07T07:09:08;39.77;;;7.20;;
81884;SDS011;71340;55.154;30.266;2023-09-07T07:11:35;40.95;;;6.15;;
81884;SDS011;71340;55.154;30.266;2023-09-07T07:14:01;34.50;;;5.97;;
81884;SDS011;71340;55.154;30.266;2023-09-07T07:16:26;34.33;;;5.70;;
81884;SDS011;71340;55.154;30.266;2023-09-07T07:18:51;43.23;;;6.40;;
81884;SDS011;71340;55.154;30.266;2023-09-07T07:21:17;27.35;;;4.22;;
81884;SDS011;71340;55.154;30.266;2023-09-07T07:23:42;17.50;;;5.23;;
81884;SDS011;71340;55.154;30.266;2023-09-07T07:26:08;9.77;;;3.03;;
81884;SDS011;71340;55.154;30.266;2023-09-07T07:28:34;8.57;;;2.20;;
81884;SDS011;71340;55.154;30.266;2023-09-07T07:30:59;10.30;;;2.90;;
81884;SDS011;71340;55.154;30.266;2023-09-07T07:33:33;7.43;;;2.20;;
81884;SDS011;71340;55.154;30.266;2023-09-07T07:35:58;5.70;;;2.20;;
81884;SDS011;71340;55.154;30.266;2023-09-07T07:38:24;4.60;;;2.53;;
81884;SDS011;71340;55.154;30.266;2023-09-07T07:40:49;6.53;;;2.13;;
81884;SDS011;71340;55.154;30.266;2023-09-07T07:43:15;4.00;;;1.75;;
81884;SDS011;71340;55.154;30.266;2023-09-07T07:45:41;5.27;;;1.93;;
81884;SDS011;71340;55.154;30.266;2023-09-07T07:48:06;8.70;;;2.10;;
81884;SDS011;71340;55.154;30.266;2023-09-07T07:50:35;5.85;;;2.38;;
81884;SDS011;71340;55.154;30.266;2023-09-07T07:53:02;5.07;;;2.23;;
81884;SDS011;71340;55.154;30.266;2023-09-07T07:55:27;2.53;;;1.85;;
81884;SDS011;71340;55.154;30.266;2023-09-07T07:57:52;7.50;;;1.97;;
81884;SDS011;71340;55.154;30.266;2023-09-07T08:00:18;6.07;;;2.00;;
81884;SDS011;71340;55.154;30.266;2023-09-07T08:02:44;4.63;;;2.50;;
81884;SDS011;71340;55.154;30.266;2023-09-07T08:05:09;4.83;;;2.03;;
81884;SDS011;71340;55.154;30.266;2023-09-07T08:07:34;3.55;;;1.90;;
81884;SDS011;71340;55.154;30.266;2023-09-07T08:10:00;8.40;;;1.70;;
81884;SDS011;71340;55.154;30.266;2023-09-07T08:12:25;9.23;;;2.10;;
81884;SDS011;71340;55.154;30.266;2023-09-07T08:14:50;2.63;;;1.80;;
81884;SDS011;71340;55.154;30.266;2023-09-07T08:17:16;6.30;;;1.77;;
81884;SDS011;71340;55.154;30.266;2023-09-07T08:19:41;3.47;;;1.70;;
81884;SDS011;71340;55.154;30.266;2023-09-07T08:22:08;2.65;;;1.67;;
81884;SDS011;71340;55.154;30.266;2023-09-07T08:24:34;4.10;;;1.73;;
81884;SDS011;71340;55.154;30.266;2023-09-07T08:27:00;36.63;;;10.03;;
81884;SDS011;71340;55.154;30.266;2023-09-07T08:29:25;3.97;;;1.90;;
81884;SDS011;71340;55.154;30.266;2023-09-07T08:31:52;5.88;;;2.13;;
81884;SDS011;71340;55.154;30.266;2023-09-07T08:34:18;3.10;;;1.90;;
81884;SDS011;71340;55.154;30.266;2023-09-07T08:36:45;5.95;;;2.28;;
81884;SDS011;71340;55.154;30.266;2023-09-07T08:39:12;6.47;;;2.67;;
81884;SDS011;71340;55.154;30.266;2023-09-07T08:41:41;9.13;;;3.33;;
81884;SDS011;71340;55.154;30.266;2023-09-07T08:44:10;4.00;;;2.17;;
81884;SDS011;71340;55.154;30.266;2023-09-07T08:46:36;13.27;;;4.28;;
81884;SDS011;71340;55.154;30.266;2023-09-07T08:49:02;5.55;;;3.00;;
81884;SDS011;71340;55.154;30.266;2023-09-07T08:51:29;7.50;;;2.80;;
81884;SDS011;71340;55.154;30.266;2023-09-07T08:53:56;2.88;;;2.03;;
81884;SDS011;71340;55.154;30.266;2023-09-07T08:56:22;11.07;;;3.60;;
81884;SDS011;71340;55.154;30.266;2023-09-07T08:58:48;5.17;;;2.93;;
81884;SDS011;71340;55.154;30.266;2023-09-07T09:01:16;5.00;;;2.20;;
81884;SDS011;71340;55.154;30.266;2023-09-07T09:03:42;2.67;;;1.60;;
81884;SDS011;71340;55.154;30.266;2023-09-07T09:06:08;4.33;;;1.90;;
81884;SDS011;71340;55.154;30.266;2023-09-07T09:08:47;4.15;;;1.70;;
81884;SDS011;71340;55.154;30.266;2023-09-07T09:11:20;2.60;;;2.00;;
81884;SDS011;71340;55.154;30.266;2023-09-07T09:13:48;3.25;;;1.90;;
81884;SDS011;71340;55.154;30.266;2023-09-07T09:16:14;4.88;;;1.70;;
81884;SDS011;71340;55.154;30.266;2023-09-07T09:18:47;4.97;;;1.80;;
81884;SDS011;71340;55.154;30.266;2023-09-07T09:21:20;3.55;;;1.63;;
81884;SDS011;71340;55.154;30.266;2023-09-07T09:23:50;3.33;;;1.60;;
81884;SDS011;71340;55.154;30.266;2023-09-07T09:26:16;3.60;;;1.57;;
81884;SDS011;71340;55.154;30.266;2023-09-07T09:28:42;3.03;;;1.73;;
81884;SDS011;71340;55.154;30.266;2023-09-07T09:31:11;4.32;;;1.92;;
81884;SDS011;71340;55.154;30.266;2023-09-07T09:33:40;7.13;;;2.28;;
81884;SDS011;71340;55.154;30.266;2023-09-07T09:36:07;5.72;;;2.20;;
81884;SDS011;71340;55.154;30.266;2023-09-07T09:38:33;12.18;;;3.42;;
81884;SDS011;71340;55.154;30.266;2023-09-07T09:40:59;3.95;;;2.22;;
81884;SDS011;71340;55.154;30.266;2023-09-07T09:43:26;4.83;;;1.90;;
81884;SDS011;71340;55.154;30.266;2023-09-07T09:45:52;3.40;;;2.00;;
81884;SDS011;71340;55.154;30.266;2023-09-07T09:48:21;3.60;;;1.80;;
81884;SDS011;71340;55.154;30.266;2023-09-07T09:50:47;2.80;;;1.70;;
81884;SDS011;71340;55.154;30.266;2023-09-07T09:53:13;4.72;;;1.80;;
81884;SDS011;71340;55.154;30.266;2023-09-07T09:55:43;6.00;;;1.85;;
81884;SDS011;71340;55.154;30.266;2023-09-07T09:58:17;6.25;;;2.38;;
81884;SDS011;71340;55.154;30.266;2023-09-07T10:00:43;4.37;;;1.90;;
81884;SDS011;71340;55.154;30.266;2023-09-07T10:03:12;5.00;;;2.30;;
81884;SDS011;71340;55.154;30.266;2023-09-07T10:05:43;4.07;;;2.00;;
81884;SDS011;71340;55.154;30.266;2023-09-07T10:08:12;3.35;;;1.88;;
81884;SDS011;71340;55.154;30.266;2023-09-07T10:10:40;5.32;;;2.30;;
81884;SDS011;71340;55.154;30.266;2023-09-07T10:13:06;8.88;;;4.70;;
81884;SDS011;71340;55.154;30.266;2023-09-07T10:15:32;3.63;;;2.03;;
81884;SDS011;71340;55.154;30.266;2023-09-07T10:20:34;2.38;;;1.52;;
81884;SDS011;71340;55.154;30.266;2023-09-07T10:23:12;4.03;;;1.77;;
81884;SDS011;71340;55.154;30.266;2023-09-07T10:25:38;4.40;;;1.93;;
81884;SDS011;71340;55.154;30.266;2023-09-07T10:28:03;2.97;;;1.77;;
81884;SDS011;71340;55.154;30.266;2023-09-07T10:30:29;2.73;;;1.63;;
81884;SDS011;71340;55.154;30.266;2023-09-07T10:32:54;2.58;;;1.75;;
81884;SDS011;71340;55.154;30.266;2023-09-07T10:35:19;5.90;;;2.07;;
81884;SDS011;71340;55.154;30.266;2023-09-07T10:37:50;2.85;;;2.00;;
81884;SDS011;71340;55.154;30.266;2023-09-07T10:40:18;2.50;;;2.00;;
81884;SDS011;71340;55.154;30.266;2023-09-07T10:42:46;4.30;;;1.80;;
81884;SDS011;71340;55.154;30.266;2023-09-07T10:45:12;5.30;;;2.38;;
81884;SDS011;71340;55.154;30.266;2023-09-07T10:47:44;3.37;;;1.90;;
81884;SDS011;71340;55.154;30.266;2023-09-07T10:50:11;3.40;;;1.75;;
81884;SDS011;71340;55.154;30.266;2023-09-07T10:52:38;3.33;;;1.90;;
81884;SDS011;71340;55.154;30.266;2023-09-07T10:55:06;3.57;;;1.90;;
81884;SDS011;71340;55.154;30.266;2023-09-07T10:57:32;3.08;;;1.80;;
81884;SDS011;71340;55.154;30.266;2023-09-07T10:59:57;7.27;;;2.20;;
81884;SDS011;71340;55.154;30.266;2023-09-07T11:02:22;7.00;;;2.40;;
81884;SDS011;71340;55.154;30.266;2023-09-07T11:04:48;3.42;;;1.70;;
81884;SDS011;71340;55.154;30.266;2023-09-07T11:07:13;3.73;;;2.33;;
81884;SDS011;71340;55.154;30.266;2023-09-07T11:09:42;2.93;;;2.10;;
81884;SDS011;71340;55.154;30.266;2023-09-07T11:12:08;4.18;;;1.70;;
81884;SDS011;71340;55.154;30.266;2023-09-07T11:14:38;3.17;;;1.70;;
81884;SDS011;71340;55.154;30.266;2023-09-07T11:17:04;3.88;;;2.00;;
81884;SDS011;71340;55.154;30.266;2023-09-07T11:19:32;3.30;;;2.07;;
81884;SDS011;71340;55.154;30.266;2023-09-07T11:21:58;3.33;;;1.90;;
81884;SDS011;71340;55.154;30.266;2023-09-07T11:24:24;5.13;;;2.17;;
81884;SDS011;71340;55.154;30.266;2023-09-07T11:26:51;8.25;;;1.98;;
81884;SDS011;71340;55.154;30.266;2023-09-07T11:29:16;4.00;;;2.00;;
81884;SDS011;71340;55.154;30.266;2023-09-07T11:31:44;4.75;;;1.88;;
81884;SDS011;71340;55.154;30.266;2023-09-07T11:34:10;4.18;;;1.60;;
81884;SDS011;71340;55.154;30.266;2023-09-07T11:36:37;4.57;;;2.20;;
81884;SDS011;71340;55.154;30.266;2023-09-07T11:39:04;4.47;;;1.85;;
81884;SDS011;71340;55.154;30.266;2023-09-07T11:41:46;5.22;;;2.10;;
81884;SDS011;71340;55.154;30.266;2023-09-07T11:44:11;3.40;;;2.03;;
81884;SDS011;71340;55.154;30.266;2023-09-07T11:46:37;2.60;;;1.97;;
81884;SDS011;71340;55.154;30.266;2023-09-07T11:49:02;3.27;;;2.27;;
81884;SDS011;71340;55.154;30.266;2023-09-07T11:51:29;3.42;;;2.00;;
81884;SDS011;71340;55.154;30.266;2023-09-07T11:53:55;4.57;;;2.40;;
81884;SDS011;71340;55.154;30.266;2023-09-07T11:56:20;4.83;;;2.17;;
81884;SDS011;71340;55.154;30.266;2023-09-07T11:58:45;3.57;;;1.90;;
81884;SDS011;71340;55.154;30.266;2023-09-07T12:01:11;3.77;;;1.90;;
81884;SDS011;71340;55.154;30.266;2023-09-07T12:03:36;5.53;;;2.10;;
81884;SDS011;71340;55.154;30.266;2023-09-07T12:06:02;2.50;;;2.30;;
81884;SDS011;71340;55.154;30.266;2023-09-07T12:08:27;4.90;;;2.27;;
81884;SDS011;71340;55.154;30.266;2023-09-07T12:10:53;4.35;;;2.15;;
81884;SDS011;71340;55.154;30.266;2023-09-07T12:13:18;2.10;;;1.80;;
81884;SDS011;71340;55.154;30.266;2023-09-07T12:15:44;4.20;;;2.20;;
81884;SDS011;71340;55.154;30.266;2023-09-07T12:18:09;3.70;;;2.20;;
81884;SDS011;71340;55.154;30.266;2023-09-07T12:20:34;2.50;;;1.77;;
81884;SDS011;71340;55.154;30.266;2023-09-07T12:23:00;3.37;;;2.00;;
81884;SDS011;71340;55.154;30.266;2023-09-07T12:25:27;4.55;;;2.05;;
81884;SDS011;71340;55.154;30.266;2023-09-07T12:27:53;5.43;;;1.95;;
81884;SDS011;71340;55.154;30.266;2023-09-07T12:30:18;2.73;;;1.83;;
81884;SDS011;71340;55.154;30.266;2023-09-07T12:32:45;4.38;;;2.10;;
81884;SDS011;71340;55.154;30.266;2023-09-07T12:35:11;4.07;;;2.10;;
81884;SDS011;71340;55.154;30.266;2023-09-07T12:37:36;5.57;;;2.57;;
81884;SDS011;71340;55.154;30.266;2023-09-07T12:40:04;4.40;;;2.20;;
81884;SDS011;71340;55.154;30.266;2023-09-07T12:42:37;4.40;;;2.03;;
81884;SDS011;71340;55.154;30.266;2023-09-07T12:45:03;4.15;;;2.00;;
81884;SDS011;71340;55.154;30.266;2023-09-07T12:47:30;4.40;;;2.37;;
81884;SDS011;71340;55.154;30.266;2023-09-07T12:49:55;21.17;;;11.43;;
81884;SDS011;71340;55.154;30.266;2023-09-07T12:52:21;5.53;;;3.05;;
81884;SDS011;71340;55.154;30.266;2023-09-07T12:54:46;5.37;;;2.23;;
81884;SDS011;71340;55.154;30.266;2023-09-07T12:57:12;4.17;;;2.07;;
81884;SDS011;71340;55.154;30.266;2023-09-07T12:59:37;3.47;;;2.30;;
81884;SDS011;71340;55.154;30.266;2023-09-07T13:02:03;6.33;;;2.60;;
81884;SDS011;71340;55.154;30.266;2023-09-07T13:04:28;6.50;;;2.60;;
81884;SDS011;71340;55.154;30.266;2023-09-07T13:06:54;6.65;;;2.72;;
81884;SDS011;71340;55.154;30.266;2023-09-07T13:09:20;6.00;;;3.00;;
81884;SDS011;71340;55.154;30.266;2023-09-07T13:11:45;5.80;;;3.20;;
81884;SDS011;71340;55.154;30.266;2023-09-07T13:14:10;10.63;;;4.60;;
81884;SDS011;71340;55.154;30.266;2023-09-07T13:16:36;11.53;;;4.57;;
81884;SDS011;71340;55.154;30.266;2023-09-07T13:19:01;12.90;;;7.80;;
81884;SDS011;71340;55.154;30.266;2023-09-07T13:21:27;7.03;;;3.00;;
81884;SDS011;71340;55.154;30.266;2023-09-07T13:23:52;3.00;;;2.47;;
81884;SDS011;71340;55.154;30.266;2023-09-07T13:31:40;4.28;;;2.97;;
81884;SDS011;71340;55.154;30.266;2023-09-07T13:34:05;3.10;;;2.60;;
81884;SDS011;71340;55.154;30.266;2023-09-07T13:36:30;3.63;;;3.10;;
81884;SDS011;71340;55.154;30.266;2023-09-07T13:38:56;6.27;;;3.07;;
81884;SDS011;71340;55.154;30.266;2023-09-07T13:41:22;3.80;;;2.70;;
81884;SDS011;71340;55.154;30.266;2023-09-07T13:43:48;3.75;;;2.90;;
81884;SDS011;71340;55.154;30.266;2023-09-07T13:46:13;3.57;;;3.10;;
81884;SDS011;71340;55.154;30.266;2023-09-07T13:48:38;6.47;;;3.40;;
81884;SDS011;71340;55.154;30.266;2023-09-07T13:51:04;4.80;;;2.70;;
81884;SDS011;71340;55.154;30.266;2023-09-07T13:53:29;6.57;;;3.40;;
81884;SDS011;71340;55.154;30.266;2023-09-07T13:55:54;3.47;;;2.60;;
81884;SDS011;71340;55.154;30.266;2023-09-07T13:58:20;3.40;;;3.10;;
81884;SDS011;71340;55.154;30.266;2023-09-07T14:00:45;3.87;;;3.30;;
81884;SDS011;71340;55.154;30.266;2023-09-07T14:03:11;3.43;;;2.90;;
81884;SDS011;71340;55.154;30.266;2023-09-07T14:05:37;4.37;;;3.23;;
81884;SDS011;71340;55.154;30.266;2023-09-07T14:08:02;3.95;;;3.20;;
81884;SDS011;71340;55.154;30.266;2023-09-07T14:10:28;21.23;;;3.27;;
81884;SDS011;71340;55.154;30.266;2023-09-07T14:12:53;6.60;;;3.00;;
81884;SDS011;71340;55.154;30.266;2023-09-07T14:15:19;4.43;;;2.60;;
81884;SDS011;71340;55.154;30.266;2023-09-07T14:17:44;3.50;;;2.73;;
81884;SDS011;71340;55.154;30.266;2023-09-07T14:20:10;6.33;;;3.17;;
81884;SDS011;71340;55.154;30.266;2023-09-07T14:22:35;4.68;;;2.88;;
81884;SDS011;71340;55.154;30.266;2023-09-07T14:25:01;11.07;;;6.70;;
81884;SDS011;71340;55.154;30.266;2023-09-07T14:27:26;6.07;;;2.83;;
81884;SDS011;71340;55.154;30.266;2023-09-07T14:29:52;4.50;;;3.10;;